Time;durP1;ratioP1;P1;durP2;ratioP2;P2;SDS_P1;SDS_P2;PMS_P1;PMS_P2;Temp;Humidity;BMP_temperature;BMP_pressure;BME280_temperature;BME280_humidity;BME280_pressure;Samples;Min_cycle;Max_cycle;Signal;HPM_P1;HPM_P2
2022/03/20 00:00:09;;;;;;;13.20;5.53;;;4.60;91.00;;;;;;5095890;28;20040;-66
2022/03/20 00:02:35;;;;;;;12.63;5.93;;;4.60;91.50;;;;;;5071614;28;20047;-68
2022/03/20 00:05:02;;;;;;;8.27;5.53;;;4.50;90.70;;;;;;5097177;28;20036;-68
2022/03/20 00:07:28;;;;;;;12.15;5.53;;;4.50;91.10;;;;;;5085250;28;20092;-67
2022/03/20 00:09:54;;;;;;;10.35;5.70;;;4.40;91.00;;;;;;5095201;28;20111;-69
2022/03/20 00:12:20;;;;;;;11.75;5.63;;;4.40;91.10;;;;;;5092607;28;20585;-67
2022/03/20 00:14:46;;;;;;;12.60;6.40;;;4.40;91.20;;;;;;5086632;28;20045;-68
2022/03/20 00:17:13;;;;;;;8.65;5.03;;;4.30;91.00;;;;;;5077030;28;20040;-68
2022/03/20 00:19:39;;;;;;;11.48;5.50;;;4.30;91.50;;;;;;5072290;28;20131;-68
2022/03/20 00:22:05;;;;;;;11.75;5.70;;;4.20;91.50;;;;;;5078616;28;20036;-68
2022/03/20 00:24:31;;;;;;;10.43;5.93;;;4.20;91.50;;;;;;5064145;28;20081;-68
2022/03/20 00:26:57;;;;;;;14.73;6.00;;;4.10;91.50;;;;;;5072671;28;20519;-68
2022/03/20 00:29:25;;;;;;;10.98;5.85;;;4.00;91.70;;;;;;5077701;28;20122;-68
2022/03/20 00:31:51;;;;;;;13.63;6.15;;;4.00;92.00;;;;;;5071613;28;20153;-67
2022/03/20 00:34:17;;;;;;;12.63;5.68;;;3.90;92.00;;;;;;5071869;28;20048;-68
2022/03/20 00:36:42;;;;;;;11.45;5.30;;;3.90;92.20;;;;;;5079097;28;20040;-68
2022/03/20 00:39:08;;;;;;;12.45;5.78;;;3.90;92.50;;;;;;5068827;28;20139;-67
2022/03/20 00:41:33;;;;;;;12.80;5.90;;;3.90;92.60;;;;;;5085502;28;20191;-67
2022/03/20 00:43:59;;;;;;;9.73;5.63;;;3.80;92.30;;;;;;5084806;28;20522;-66
2022/03/20 00:46:26;;;;;;;14.10;5.93;;;3.80;92.80;;;;;;5081753;28;20112;-67
2022/03/20 00:48:52;;;;;;;14.20;5.93;;;3.70;92.80;;;;;;5068250;28;20096;-68
2022/03/20 00:51:17;;;;;;;12.55;6.00;;;3.70;92.90;;;;;;5082313;28;20043;-68
2022/03/20 00:53:43;;;;;;;13.13;6.13;;;3.70;93.00;;;;;;5069910;28;20051;-68
2022/03/20 00:56:09;;;;;;;14.55;6.60;;;3.60;92.90;;;;;;5080252;28;20047;-68
2022/03/20 00:58:34;;;;;;;12.18;5.35;;;3.60;92.90;;;;;;5075076;28;20024;-66
2022/03/20 01:01:00;;;;;;;10.57;5.57;;;3.60;93.70;;;;;;5083605;28;20517;-68
2022/03/20 01:03:25;;;;;;;11.35;5.82;;;3.60;93.80;;;;;;5058295;28;20051;-68
2022/03/20 01:05:52;;;;;;;10.10;5.85;;;3.50;93.60;;;;;;5081546;28;20054;-67
2022/03/20 01:08:18;;;;;;;12.02;5.57;;;3.60;93.90;;;;;;5079021;28;20036;-67
2022/03/20 01:10:44;;;;;;;10.60;6.13;;;3.60;94.00;;;;;;5072477;28;20040;-68
2022/03/20 01:13:09;;;;;;;11.38;5.68;;;3.70;93.90;;;;;;5076543;28;20052;-67
2022/03/20 01:15:35;;;;;;;13.77;6.00;;;3.70;94.70;;;;;;5069095;28;20108;-67
2022/03/20 01:18:01;;;;;;;11.98;5.55;;;3.70;94.30;;;;;;5104146;28;20036;-69
2022/03/20 01:20:27;;;;;;;11.73;6.15;;;3.80;94.40;;;;;;5100172;28;20528;-69
2022/03/20 01:22:52;;;;;;;13.82;5.28;;;3.70;93.80;;;;;;5080595;28;20451;-67
2022/03/20 01:25:18;;;;;;;10.95;5.95;;;3.90;94.50;;;;;;5093252;28;20164;-67
2022/03/20 01:27:44;;;;;;;10.45;5.43;;;3.80;94.10;;;;;;5093279;28;20044;-66
2022/03/20 01:30:10;;;;;;;13.27;6.35;;;3.90;94.20;;;;;;5102595;28;20506;-68
2022/03/20 01:32:35;;;;;;;13.05;5.85;;;3.80;93.70;;;;;;5070535;28;20032;-67
2022/03/20 01:35:01;;;;;;;14.18;6.88;;;3.80;93.70;;;;;;5082828;28;20040;-68
2022/03/20 01:37:27;;;;;;;12.48;6.05;;;3.80;93.70;;;;;;5095428;28;20028;-69
2022/03/20 01:39:53;;;;;;;12.70;6.68;;;3.80;93.30;;;;;;5085772;28;20035;-66
2022/03/20 01:42:20;;;;;;;14.70;6.57;;;3.80;94.20;;;;;;5091471;28;20528;-68
2022/03/20 01:44:46;;;;;;;11.27;6.05;;;3.80;93.40;;;;;;5092772;28;20036;-67
2022/03/20 01:47:12;;;;;;;15.65;7.13;;;3.80;93.30;;;;;;5073279;28;20123;-68
2022/03/20 01:49:37;;;;;;;12.75;6.80;;;3.70;93.30;;;;;;5085623;28;20158;-68
2022/03/20 01:52:10;;;;;;;12.35;6.25;;;3.70;93.70;;;;;;5098229;28;20122;-68
2022/03/20 01:54:39;;;;;;;17.90;8.35;;;3.70;93.70;;;;;;5095068;28;20138;-67
2022/03/20 01:57:07;;;;;;;15.90;7.00;;;3.60;93.30;;;;;;5091706;28;20073;-67
2022/03/20 01:59:33;;;;;;;14.35;6.78;;;3.60;94.10;;;;;;5089419;28;20040;-67
2022/03/20 02:02:00;;;;;;;13.05;7.13;;;3.60;93.40;;;;;;5118534;27;20063;-67
2022/03/20 02:04:26;;;;;;;13.07;6.30;;;3.60;93.40;;;;;;5082561;28;20070;-67
2022/03/20 02:06:52;;;;;;;14.60;6.53;;;3.60;93.80;;;;;;5086769;28;20138;-66
2022/03/20 02:09:17;;;;;;;16.40;7.07;;;3.50;93.80;;;;;;5092770;28;20119;-67
2022/03/20 02:11:47;;;;;;;15.82;7.65;;;3.60;93.90;;;;;;5078291;28;20047;-68
2022/03/20 02:14:13;;;;;;;15.35;7.22;;;3.60;93.70;;;;;;5090606;28;20044;-68
2022/03/20 02:16:39;;;;;;;14.85;6.75;;;3.50;93.70;;;;;;5079210;28;20024;-68
2022/03/20 02:19:08;;;;;;;17.10;7.53;;;3.50;94.10;;;;;;5088445;28;20498;-67
2022/03/20 02:21:41;;;;;;;18.15;7.53;;;3.50;93.70;;;;;;5095336;28;20374;-67
2022/03/20 02:24:40;;;;;;;16.77;7.07;;;3.40;93.70;;;;;;5089356;28;20036;-67
2022/03/20 02:27:22;;;;;;;14.07;7.38;;;3.40;94.10;;;;;;5104793;28;20039;-67
2022/03/20 02:29:53;;;;;;;13.85;6.75;;;3.30;93.70;;;;;;5114395;28;20149;-68
2022/03/20 02:32:23;;;;;;;14.68;6.88;;;3.30;94.00;;;;;;5086751;28;20040;-66
2022/03/20 02:34:50;;;;;;;16.67;7.78;;;3.30;94.10;;;;;;5100660;28;20052;-68
2022/03/20 02:37:18;;;;;;;16.00;7.85;;;3.20;94.10;;;;;;5090221;28;20039;-67
2022/03/20 02:39:44;;;;;;;17.17;7.45;;;3.10;93.80;;;;;;5098601;28;20055;-67
2022/03/20 02:42:09;;;;;;;15.70;7.50;;;3.10;93.90;;;;;;5077633;28;20031;-66
2022/03/20 02:45:11;;;;;;;10.77;6.47;;;3.00;94.80;;;;;;5083241;28;20123;-68
2022/03/20 02:47:42;;;;;;;16.52;7.40;;;3.10;95.10;;;;;;5065523;28;20507;-67
2022/03/20 02:50:24;;;;;;;17.77;8.10;;;3.00;94.00;;;;;;5088620;28;20051;-67
2022/03/20 02:52:56;;;;;;;14.98;7.90;;;3.00;94.90;;;;;;5089774;28;20032;-67
2022/03/20 02:55:45;;;;;;;15.50;8.10;;;2.90;94.80;;;;;;5086487;28;20048;-68
2022/03/20 02:58:17;;;;;;;14.50;7.78;;;2.90;94.50;;;;;;5085194;28;20032;-67
2022/03/20 03:00:43;;;;;;;13.38;7.65;;;2.80;94.40;;;;;;5073958;28;20069;-69
2022/03/20 03:03:13;;;;;;;17.98;8.38;;;2.70;94.60;;;;;;5086096;28;20043;-66
2022/03/20 03:05:40;;;;;;;16.75;7.72;;;2.70;95.10;;;;;;5096405;28;20072;-67
2022/03/20 03:10:56;;;;;;;14.35;7.82;;;2.70;94.90;;;;;;5092920;28;20050;-67
2022/03/20 03:13:23;;;;;;;17.13;8.52;;;2.70;95.30;;;;;;5083195;28;20176;-67
2022/03/20 03:15:52;;;;;;;14.73;8.23;;;2.70;95.20;;;;;;5091455;28;20048;-67
2022/03/20 03:18:20;;;;;;;20.23;8.48;;;2.70;95.60;;;;;;5104585;28;20031;-67
2022/03/20 03:20:47;;;;;;;16.08;7.72;;;2.70;95.50;;;;;;5086598;28;20409;-67
2022/03/20 03:23:13;;;;;;;14.00;8.00;;;2.70;95.20;;;;;;5095459;28;20475;-66
2022/03/20 03:25:40;;;;;;;19.48;8.38;;;2.70;95.20;;;;;;5071866;28;20040;-67
2022/03/20 03:28:06;;;;;;;13.57;7.50;;;2.70;95.10;;;;;;5094321;28;20055;-66
2022/03/20 03:30:33;;;;;;;17.60;8.30;;;2.70;95.10;;;;;;5094740;28;20050;-67
2022/03/20 03:33:00;;;;;;;15.88;8.60;;;2.60;95.30;;;;;;5096355;28;20058;-67
2022/03/20 03:35:46;;;;;;;18.05;9.02;;;2.60;95.50;;;;;;5099839;28;20096;-67
2022/03/20 03:38:17;;;;;;;19.30;8.80;;;2.60;95.00;;;;;;5097338;28;20139;-66
2022/03/20 03:40:45;;;;;;;25.50;9.68;;;2.60;95.20;;;;;;5091156;28;20040;-67
2022/03/20 03:43:14;;;;;;;21.90;9.68;;;2.60;95.30;;;;;;5093829;28;20031;-67
2022/03/20 03:45:40;;;;;;;16.75;8.90;;;2.50;94.90;;;;;;5100342;28;20092;-67
2022/03/20 03:48:07;;;;;;;20.60;9.65;;;2.50;95.20;;;;;;5091686;28;20036;-67
2022/03/20 03:50:33;;;;;;;25.55;10.60;;;2.50;95.70;;;;;;5098620;28;20036;-67
2022/03/20 03:52:59;;;;;;;17.30;9.57;;;2.50;94.50;;;;;;5095836;28;20063;-67
2022/03/20 03:55:25;;;;;;;18.80;9.30;;;2.50;94.50;;;;;;5097753;28;20043;-69
2022/03/20 03:57:51;;;;;;;18.05;9.98;;;2.60;95.20;;;;;;5106283;28;20059;-67
2022/03/20 04:00:21;;;;;;;19.52;9.82;;;2.60;94.40;;;;;;5090679;28;20088;-67
2022/03/20 04:02:48;;;;;;;16.92;8.80;;;2.60;94.40;;;;;;5120797;27;20067;-67
2022/03/20 04:05:20;;;;;;;21.95;10.15;;;2.60;94.20;;;;;;5093469;28;20044;-67
2022/03/20 04:07:47;;;;;;;20.38;9.98;;;2.60;93.90;;;;;;5087701;28;20036;-65
2022/03/20 04:10:13;;;;;;;19.33;10.20;;;2.60;93.80;;;;;;5100614;28;20062;-68
2022/03/20 04:12:40;;;;;;;17.33;9.30;;;2.60;93.60;;;;;;5087887;28;20035;-67
2022/03/20 04:15:10;;;;;;;21.98;10.57;;;2.60;93.40;;;;;;5085996;28;20054;-67
2022/03/20 04:17:37;;;;;;;20.30;10.65;;;2.50;93.40;;;;;;5072912;28;20052;-68
2022/03/20 04:20:04;;;;;;;22.38;10.40;;;2.50;93.10;;;;;;5091926;28;20097;-67
2022/03/20 04:22:30;;;;;;;19.73;9.10;;;2.50;93.10;;;;;;5073949;28;20044;-67
2022/03/20 04:24:56;;;;;;;20.38;10.20;;;2.40;93.10;;;;;;5095572;28;20039;-68
2022/03/20 04:27:22;;;;;;;22.40;10.50;;;2.40;93.00;;;;;;5107943;28;20042;-67
2022/03/20 04:29:48;;;;;;;25.00;10.93;;;2.40;92.90;;;;;;5099337;28;20051;-67
2022/03/20 04:32:14;;;;;;;22.80;11.45;;;2.40;92.80;;;;;;5087098;28;20039;-67
2022/03/20 04:34:41;;;;;;;20.52;9.82;;;2.50;92.30;;;;;;5090144;28;20039;-67
2022/03/20 04:37:07;;;;;;;24.02;11.55;;;2.40;92.40;;;;;;5096418;28;20043;-67
2022/03/20 04:39:37;;;;;;;22.73;11.32;;;2.40;92.40;;;;;;5075983;28;20043;-68
2022/03/20 04:42:04;;;;;;;23.08;11.48;;;2.40;92.20;;;;;;5079545;28;20380;-66
2022/03/20 04:44:30;;;;;;;22.48;11.75;;;2.40;92.20;;;;;;5090749;28;20032;-67
2022/03/20 04:46:56;;;;;;;26.83;12.88;;;2.40;92.00;;;;;;5102393;28;20427;-69
2022/03/20 05:00:38;;;;;;;23.98;11.70;;;2.30;91.60;;;;;;5089444;28;20089;-67
2022/03/20 05:03:03;;;;;;;23.13;11.93;;;2.30;91.50;;;;;;5101273;28;20032;-67
2022/03/20 05:05:29;;;;;;;25.08;12.57;;;2.20;91.60;;;;;;5087024;28;20112;-66
2022/03/20 05:07:55;;;;;;;23.27;12.00;;;2.30;91.40;;;;;;5089881;28;20593;-67
2022/03/20 05:13:19;;;;;;;25.40;11.30;;;2.20;91.30;;;;;;5095257;28;20051;-66
2022/03/20 05:15:45;;;;;;;23.30;11.60;;;2.20;91.10;;;;;;5090984;28;20139;-66
2022/03/20 05:18:10;;;;;;;25.95;12.98;;;2.20;91.10;;;;;;5075411;28;20119;-68
2022/03/20 05:20:36;;;;;;;25.00;12.63;;;2.30;91.00;;;;;;5101550;28;20054;-71
2022/03/20 05:23:02;;;;;;;24.33;12.88;;;2.30;90.90;;;;;;5098272;28;20038;-67
2022/03/20 05:25:28;;;;;;;25.85;12.70;;;2.20;90.90;;;;;;5085312;28;20063;-66
2022/03/20 05:27:55;;;;;;;27.75;12.98;;;2.20;90.90;;;;;;5094118;28;20047;-67
2022/03/20 05:30:21;;;;;;;23.50;12.13;;;2.20;90.80;;;;;;5082088;28;20040;-67
2022/03/20 05:32:48;;;;;;;26.38;12.82;;;2.20;90.70;;;;;;5092376;28;20093;-68
2022/03/20 05:35:16;;;;;;;28.08;12.98;;;2.20;90.70;;;;;;5069200;28;20090;-67
2022/03/20 05:37:42;;;;;;;25.02;12.02;;;2.20;90.60;;;;;;5089030;28;20039;-66
2022/03/20 05:40:08;;;;;;;25.05;13.23;;;2.20;90.40;;;;;;5087351;28;20039;-67
2022/03/20 05:42:36;;;;;;;23.13;12.48;;;2.20;90.50;;;;;;5068907;28;20036;-67
2022/03/20 05:45:02;;;;;;;25.70;12.32;;;2.20;90.60;;;;;;5082443;28;20039;-67
2022/03/20 05:47:31;;;;;;;25.27;13.43;;;2.20;90.30;;;;;;5103846;28;20079;-69
2022/03/20 05:50:03;;;;;;;23.70;13.50;;;2.20;90.30;;;;;;5111986;27;20036;-68
2022/03/20 05:52:31;;;;;;;24.67;12.57;;;2.20;90.30;;;;;;5097106;28;20094;-67
2022/03/20 05:55:01;;;;;;;27.83;13.38;;;2.20;90.10;;;;;;5088132;28;20162;-67
2022/03/20 06:00:18;;;;;;;22.80;12.90;;;2.20;89.90;;;;;;5095701;28;20040;-66
2022/03/20 06:02:44;;;;;;;27.42;12.82;;;2.20;89.80;;;;;;5095956;28;20028;-67
2022/03/20 06:05:11;;;;;;;28.33;15.18;;;2.20;89.60;;;;;;5088628;28;20044;-67
2022/03/20 06:07:44;;;;;;;27.98;13.77;;;2.20;89.50;;;;;;5076824;28;20071;-67
2022/03/20 06:10:14;;;;;;;24.83;13.57;;;2.20;89.50;;;;;;5101020;28;20131;-68
2022/03/20 06:12:40;;;;;;;;;;;2.20;89.70;;;;;;5086610;28;20508;-67
2022/03/20 06:15:08;;;;;;;27.42;13.07;;;2.20;89.80;;;;;;5080341;28;19923;-67
2022/03/20 06:17:45;;;;;;;23.40;11.95;;;2.30;89.40;;;;;;5101406;28;20023;-66
2022/03/20 06:20:12;;;;;;;26.15;12.43;;;2.30;89.20;;;;;;5084705;28;20039;-67
2022/03/20 06:22:37;;;;;;;23.27;13.35;;;2.30;89.00;;;;;;5102002;28;20100;-67
2022/03/20 06:25:07;;;;;;;27.20;13.52;;;2.40;88.80;;;;;;5105234;28;20047;-66
2022/03/20 06:27:47;;;;;;;;;;;2.50;88.50;;;;;;5096015;28;20395;-67
2022/03/20 06:30:14;;;;;;;22.30;12.50;;;2.60;87.50;;;;;;5095856;28;19924;-68
2022/03/20 06:32:41;;;;;;;28.48;14.32;;;2.60;87.20;;;;;;5099923;28;20070;-68
2022/03/20 06:35:08;;;;;;;26.80;13.52;;;2.70;87.20;;;;;;5094821;28;20123;-67
2022/03/20 06:37:42;;;;;;;27.45;13.98;;;2.70;87.20;;;;;;5088990;28;20403;-67
2022/03/20 06:40:09;;;;;;;28.92;14.07;;;2.80;87.20;;;;;;5098283;28;20031;-67
2022/03/20 06:42:35;;;;;;;29.10;13.57;;;2.80;87.50;;;;;;5103863;28;20123;-71
2022/03/20 06:45:03;;;;;;;32.25;15.65;;;2.90;87.10;;;;;;5101400;28;20114;-68
2022/03/20 06:47:31;;;;;;;27.35;12.88;;;3.00;87.00;;;;;;5098857;28;20100;-67
2022/03/20 06:49:59;;;;;;;29.65;13.57;;;3.00;86.50;;;;;;5110197;28;20040;-67
2022/03/20 06:52:28;;;;;;;26.45;13.73;;;3.10;87.10;;;;;;5105039;28;20046;-67
2022/03/20 06:54:55;;;;;;;28.25;14.55;;;3.20;85.70;;;;;;5106339;28;20051;-67
2022/03/20 06:57:22;;;;;;;28.35;14.40;;;3.30;86.00;;;;;;5098067;28;20039;-69
2022/03/20 06:59:47;;;;;;;29.25;14.80;;;3.30;84.50;;;;;;5103286;28;20101;-64
2022/03/20 07:02:13;;;;;;;28.67;14.93;;;3.40;83.70;;;;;;5105550;28;20565;-69
2022/03/20 07:04:39;;;;;;;26.33;15.18;;;3.50;83.00;;;;;;5097816;28;20118;-69
2022/03/20 07:07:05;;;;;;;25.83;13.20;;;3.50;83.90;;;;;;5101521;28;20048;-68
2022/03/20 07:09:30;;;;;;;26.00;14.02;;;3.40;82.30;;;;;;5106560;28;20084;-68
2022/03/20 07:11:56;;;;;;;25.70;14.18;;;3.50;82.60;;;;;;5108540;28;20039;-67
2022/03/20 07:14:21;;;;;;;28.00;14.32;;;3.60;82.00;;;;;;5108298;28;20524;-68
2022/03/20 07:16:47;;;;;;;26.90;14.80;;;3.70;82.00;;;;;;5106045;28;20040;-67
2022/03/20 07:19:12;;;;;;;28.00;14.05;;;3.80;80.70;;;;;;5089351;28;20043;-66
2022/03/20 07:21:40;;;;;;;30.08;15.57;;;4.00;79.60;;;;;;5103975;28;20035;-67
2022/03/20 07:24:06;;;;;;;23.50;14.07;;;4.10;78.30;;;;;;5089232;28;20032;-69
2022/03/20 07:29:31;;;;;;;27.75;14.00;;;4.30;77.20;;;;;;5095644;28;20238;-69
2022/03/20 07:31:59;;;;;;;23.92;14.05;;;4.40;77.50;;;;;;5090980;28;20039;-68
2022/03/20 07:34:25;;;;;;;23.70;13.93;;;4.60;76.70;;;;;;5095063;28;20043;-67
2022/03/20 07:36:51;;;;;;;27.63;15.05;;;4.70;76.20;;;;;;5105861;28;20081;-67
2022/03/20 07:39:17;;;;;;;27.17;15.20;;;4.70;74.80;;;;;;5098175;28;20043;-68
2022/03/20 07:41:43;;;;;;;26.02;14.43;;;4.90;75.20;;;;;;5103151;28;20078;-67
2022/03/20 07:44:09;;;;;;;25.73;15.32;;;5.00;74.60;;;;;;5110636;28;20039;-68
2022/03/20 07:46:36;;;;;;;25.40;14.55;;;5.10;71.30;;;;;;5109816;28;20388;-68
2022/03/20 07:49:02;;;;;;;25.17;15.05;;;5.30;72.80;;;;;;5105822;28;20414;-68
2022/03/20 07:51:30;;;;;;;23.73;13.77;;;5.30;71.00;;;;;;5102097;28;20084;-69
2022/03/20 07:53:56;;;;;;;28.67;15.55;;;5.40;70.40;;;;;;5074663;28;20126;-68
2022/03/20 07:56:22;;;;;;;27.75;16.30;;;5.70;70.70;;;;;;5108259;28;20482;-68
2022/03/20 07:58:48;;;;;;;27.13;15.85;;;5.80;72.00;;;;;;5097132;28;20032;-69
2022/03/20 08:01:14;;;;;;;25.65;14.68;;;6.20;72.10;;;;;;5104389;28;20351;-70
2022/03/20 08:03:43;;;;;;;28.98;16.48;;;6.20;69.00;;;;;;5108963;28;20119;-68
2022/03/20 08:06:09;;;;;;;23.10;15.18;;;6.20;69.20;;;;;;5103222;28;20032;-69
2022/03/20 08:08:39;;;;;;;22.70;15.13;;;6.30;70.30;;;;;;5104326;28;20064;-69
2022/03/20 08:11:05;;;;;;;27.05;15.93;;;6.20;67.30;;;;;;5088767;28;20134;-69
2022/03/20 08:13:31;;;;;;;27.50;15.75;;;6.10;67.80;;;;;;5108153;28;20140;-70
2022/03/20 08:16:00;;;;;;;24.95;16.20;;;6.00;68.80;;;;;;5106910;27;20521;-69
2022/03/20 08:18:26;;;;;;;27.67;15.95;;;6.00;67.70;;;;;;5111649;27;20406;-69
2022/03/20 08:20:52;;;;;;;27.40;15.43;;;5.90;67.50;;;;;;5112317;27;20626;-67
2022/03/20 08:23:18;;;;;;;27.33;16.13;;;6.00;66.40;;;;;;5087517;27;20107;-67
2022/03/20 08:25:43;;;;;;;25.38;15.00;;;5.90;65.80;;;;;;5103519;28;20044;-70
2022/03/20 08:28:11;;;;;;;25.98;15.82;;;5.90;66.00;;;;;;5117411;27;20047;-69
2022/03/20 08:30:38;;;;;;;26.65;14.73;;;6.10;66.30;;;;;;5094290;27;20063;-70
2022/03/20 08:33:04;;;;;;;26.65;16.15;;;6.10;66.00;;;;;;5109982;27;20394;-69
2022/03/20 08:35:29;;;;;;;27.88;15.35;;;6.10;64.70;;;;;;5096184;27;20050;-69
2022/03/20 08:37:55;;;;;;;28.08;15.27;;;6.30;65.30;;;;;;5101323;27;20031;-68
2022/03/20 08:40:24;;;;;;;24.65;14.95;;;6.30;63.80;;;;;;5107355;27;20046;-70
2022/03/20 08:42:55;;;;;;;26.52;16.25;;;6.40;64.60;;;;;;5108337;27;20062;-74
2022/03/20 08:45:22;;;;;;;27.92;14.93;;;6.50;62.40;;;;;;5104641;27;20185;-72
2022/03/20 08:47:48;;;;;;;29.38;16.60;;;6.60;62.00;;;;;;5103533;27;20035;-72
2022/03/20 08:50:15;;;;;;;26.30;15.98;;;6.70;62.70;;;;;;5107242;27;20035;-69
2022/03/20 08:52:45;;;;;;;28.35;16.05;;;6.70;61.40;;;;;;5088869;27;20058;-70
2022/03/20 08:55:12;;;;;;;28.30;16.40;;;6.90;61.80;;;;;;5109556;27;20485;-71
2022/03/20 08:57:39;;;;;;;31.85;16.52;;;7.00;62.00;;;;;;5110059;27;20083;-71
2022/03/20 09:00:07;;;;;;;29.00;16.23;;;7.00;61.40;;;;;;5100778;27;20062;-69
2022/03/20 09:02:32;;;;;;;29.70;16.13;;;7.20;60.40;;;;;;5077563;28;20042;-69
2022/03/20 09:04:58;;;;;;;27.00;15.20;;;7.40;60.60;;;;;;5094069;27;20039;-73
2022/03/20 09:07:24;;;;;;;28.75;16.08;;;7.30;58.10;;;;;;5103622;27;20101;-71
2022/03/20 09:09:49;;;;;;;29.10;16.02;;;7.40;59.40;;;;;;5111430;27;20035;-70
2022/03/20 09:12:15;;;;;;;29.02;16.83;;;7.50;59.20;;;;;;5110189;27;20050;-71
2022/03/20 09:14:40;;;;;;;30.17;16.13;;;7.70;59.20;;;;;;5103916;27;20051;-71
2022/03/20 09:19:54;;;;;;;30.42;16.27;;;8.00;57.70;;;;;;5098574;27;20070;-71
2022/03/20 09:22:20;;;;;;;28.40;17.15;;;8.10;57.50;;;;;;5093521;27;20039;-72
2022/03/20 09:24:46;;;;;;;26.33;16.70;;;8.30;58.00;;;;;;5105479;27;20082;-73
2022/03/20 09:27:12;;;;;;;30.58;17.33;;;8.50;58.20;;;;;;5110316;27;20062;-70
2022/03/20 09:29:37;;;;;;;25.38;14.50;;;8.30;54.80;;;;;;5108875;27;20088;-72
2022/03/20 09:32:03;;;;;;;29.13;16.98;;;8.20;55.10;;;;;;5108010;27;20660;-77
2022/03/20 09:34:32;;;;;;;30.40;16.75;;;8.10;54.90;;;;;;5090186;27;20040;-69
2022/03/20 09:36:58;;;;;;;30.05;17.05;;;8.10;56.10;;;;;;5087904;28;20067;-69
2022/03/20 09:39:25;;;;;;;28.95;16.50;;;8.20;56.80;;;;;;5098298;27;20057;-70
2022/03/20 09:41:54;;;;;;;30.02;17.35;;;8.20;55.60;;;;;;5095632;27;20038;-72
2022/03/20 09:44:23;;;;;;;28.58;16.63;;;8.20;54.60;;;;;;5087310;27;20035;-74
2022/03/20 09:46:49;;;;;;;29.58;17.48;;;8.20;54.10;;;;;;5111545;27;20035;-69
2022/03/20 09:49:16;;;;;;;32.60;16.52;;;8.20;53.00;;;;;;5103564;28;20557;-71
2022/03/20 09:51:43;;;;;;;28.40;16.10;;;8.30;53.30;;;;;;5090356;28;20055;-70
2022/03/20 09:54:09;;;;;;;25.83;15.68;;;8.40;53.10;;;;;;5087662;27;20043;-70
2022/03/20 09:56:34;;;;;;;29.13;16.05;;;8.40;53.50;;;;;;5096622;28;20485;-69
2022/03/20 09:59:00;;;;;;;33.38;18.25;;;8.40;52.70;;;;;;5102462;27;20036;-70
2022/03/20 10:01:26;;;;;;;34.30;17.85;;;8.40;51.80;;;;;;5093692;28;20484;-73
2022/03/20 10:04:08;;;;;;;32.90;17.02;;;8.50;52.70;;;;;;5089975;28;20057;-74
2022/03/20 10:06:38;;;;;;;32.17;17.45;;;8.50;49.30;;;;;;5125667;27;20519;-71
2022/03/20 10:09:16;;;;;;;31.52;18.05;;;8.60;51.60;;;;;;5092004;27;20532;-69
2022/03/20 10:11:49;;;;;;;33.17;16.73;;;8.70;51.20;;;;;;5092462;27;20043;-71
2022/03/20 10:14:23;;;;;;;29.92;17.30;;;8.60;50.00;;;;;;5109220;27;20055;-68
2022/03/20 10:17:16;;;;;;;29.58;17.58;;;8.70;51.50;;;;;;5096110;28;20038;-74
2022/03/20 10:19:42;;;;;;;31.95;17.80;;;8.90;50.80;;;;;;5081238;28;20043;-70
2022/03/20 10:22:12;;;;;;;30.63;18.15;;;8.80;50.40;;;;;;5069379;28;20475;-70
2022/03/20 10:24:39;;;;;;;;;;;8.90;51.30;;;;;;5090309;28;20652;-72
2022/03/20 10:27:04;;;;;;;28.33;17.20;;;8.90;48.80;;;;;;5088820;28;19916;-70
2022/03/20 10:29:32;;;;;;;28.92;16.92;;;8.90;50.80;;;;;;5091021;28;20472;-71
2022/03/20 10:32:08;;;;;;;33.00;18.88;;;9.00;50.90;;;;;;5091174;28;21163;-69
2022/03/20 10:34:52;;;;;;;34.58;17.88;;;9.20;51.70;;;;;;5071259;28;20047;-68
2022/03/20 10:37:20;;;;;;;29.50;17.30;;;9.20;49.60;;;;;;5083698;28;20043;-69
2022/03/20 10:39:45;;;;;;;30.75;17.35;;;9.30;49.80;;;;;;5090878;28;20130;-70
2022/03/20 10:42:16;;;;;;;33.00;18.98;;;9.30;49.70;;;;;;5086595;28;20122;-70
2022/03/20 10:44:42;;;;;;;33.20;17.48;;;9.50;51.30;;;;;;5089401;28;20093;-71
2022/03/20 10:47:16;;;;;;;35.85;19.20;;;9.50;50.10;;;;;;5086181;28;20338;-69
2022/03/20 10:49:47;;;;;;;30.05;17.98;;;9.50;49.90;;;;;;5105705;28;20027;-72
2022/03/20 10:52:20;;;;;;;36.20;17.95;;;9.70;51.00;;;;;;5074393;28;20329;-70
2022/03/20 10:54:51;;;;;;;33.03;18.52;;;9.60;47.40;;;;;;5088621;28;20042;-70
2022/03/20 10:57:17;;;;;;;34.85;18.35;;;9.60;49.50;;;;;;5087350;28;20039;-71
2022/03/20 10:59:56;;;;;;;30.83;18.25;;;9.70;49.60;;;;;;5089315;28;20078;-71
2022/03/20 11:02:23;;;;;;;29.58;17.27;;;9.60;49.00;;;;;;5087492;28;20719;-69
2022/03/20 11:04:50;;;;;;;31.58;17.70;;;9.90;50.50;;;;;;5091486;28;20419;-71
2022/03/20 11:07:19;;;;;;;31.33;19.10;;;9.90;48.90;;;;;;5086577;28;20043;-71
2022/03/20 11:09:50;;;;;;;31.77;18.58;;;9.90;49.80;;;;;;5091315;28;20048;-69
2022/03/20 11:12:24;;;;;;;;;;;10.20;50.20;;;;;;5091978;28;20055;-70
2022/03/20 11:14:49;;;;;;;34.15;17.90;;;10.40;49.00;;;;;;5072284;28;19919;-72
2022/03/20 11:17:18;;;;;;;34.00;18.40;;;10.30;48.80;;;;;;5072239;28;20046;-69
2022/03/20 11:19:52;;;;;;;31.70;18.75;;;10.30;48.40;;;;;;5072516;28;20059;-69
2022/03/20 11:22:20;;;;;;;31.15;18.02;;;10.50;49.80;;;;;;5119333;28;20806;-68
2022/03/20 11:24:48;;;;;;;30.95;19.27;;;10.70;48.20;;;;;;5084920;28;20125;-69
2022/03/20 11:27:22;;;;;;;33.33;19.48;;;10.70;47.70;;;;;;5076013;28;20035;-72
2022/03/20 11:29:50;;;;;;;32.70;19.10;;;10.60;46.90;;;;;;5103718;28;20416;-68
2022/03/20 11:32:18;;;;;;;32.45;19.25;;;10.60;47.60;;;;;;5101920;27;20512;-69
2022/03/20 11:34:45;;;;;;;34.45;19.30;;;10.70;48.60;;;;;;5113697;27;20122;-71
2022/03/20 11:37:15;;;;;;;33.70;19.48;;;10.50;47.30;;;;;;5106406;27;20046;-70
2022/03/20 11:40:21;;;;;;;32.03;18.60;;;10.40;47.40;;;;;;5124498;27;20046;-68
2022/03/20 11:42:48;;;;;;;30.65;18.02;;;10.50;46.60;;;;;;5111737;27;20055;-69
2022/03/20 11:45:17;;;;;;;35.00;19.90;;;10.40;46.10;;;;;;5103792;27;20374;-68
2022/03/20 11:47:45;;;;;;;36.33;18.77;;;10.40;47.60;;;;;;5090539;27;20499;-69
2022/03/20 11:50:17;;;;;;;33.75;18.52;;;10.50;47.30;;;;;;5088308;27;20487;-69
2022/03/20 11:52:50;;;;;;;33.13;18.95;;;10.40;46.70;;;;;;5106036;27;20058;-69
2022/03/20 11:55:41;;;;;;;33.35;18.40;;;10.50;46.70;;;;;;5104240;27;20070;-68
2022/03/20 11:58:32;;;;;;;31.08;18.88;;;10.60;47.00;;;;;;5101629;27;20129;-72
2022/03/20 12:01:04;;;;;;;35.38;20.23;;;10.80;47.80;;;;;;5106005;27;20031;-69
2022/03/20 12:03:50;;;;;;;36.95;21.05;;;10.80;47.80;;;;;;5108097;27;20031;-69
2022/03/20 12:06:43;;;;;;;36.50;19.88;;;10.90;46.10;;;;;;5111358;27;20110;-76
2022/03/20 12:09:49;;;;;;;32.65;18.65;;;11.00;47.20;;;;;;5106934;27;20498;-71
2022/03/20 12:12:40;;;;;;;32.80;19.25;;;11.00;45.20;;;;;;5094419;27;20110;-70
2022/03/20 12:15:10;;;;;;;34.05;19.17;;;11.00;44.50;;;;;;5111992;27;20047;-69
2022/03/20 12:17:58;;;;;;;32.00;18.60;;;11.00;45.60;;;;;;5107937;27;20100;-68
2022/03/20 12:20:48;;;;;;;31.08;19.73;;;11.00;45.30;;;;;;5108905;27;20046;-68
2022/03/20 12:23:29;;;;;;;30.35;19.13;;;11.10;46.20;;;;;;5097658;27;20043;-69
2022/03/20 12:25:55;;;;;;;32.50;19.30;;;11.20;45.30;;;;;;5106232;27;20092;-73
2022/03/20 12:28:31;;;;;;;33.65;18.02;;;11.20;44.80;;;;;;5108701;27;20046;-71
2022/03/20 12:30:57;;;;;;;32.63;20.05;;;11.40;44.00;;;;;;5109976;27;20092;-68
2022/03/20 12:33:27;;;;;;;32.90;19.25;;;11.40;45.60;;;;;;5081510;27;20035;-73
2022/03/20 12:35:54;;;;;;;34.25;18.05;;;11.70;45.90;;;;;;5112729;27;20050;-70
2022/03/20 12:38:40;;;;;;;33.50;20.60;;;11.80;44.30;;;;;;5104459;27;20035;-69
2022/03/20 12:41:18;;;;;;;32.40;19.50;;;11.90;43.00;;;;;;5094030;28;20031;-69
2022/03/20 12:43:57;;;;;;;32.95;18.55;;;11.90;44.00;;;;;;5092157;27;20033;-70
2022/03/20 12:46:23;;;;;;;32.00;19.00;;;11.80;43.80;;;;;;5094504;27;20039;-74
2022/03/20 12:48:54;;;;;;;29.65;19.13;;;11.80;44.30;;;;;;5084895;27;20059;-67
2022/03/20 12:51:32;;;;;;;36.85;20.30;;;11.80;44.10;;;;;;5096843;28;20035;-67
2022/03/20 12:54:11;;;;;;;31.13;19.15;;;12.00;43.50;;;;;;5103554;28;20577;-69
2022/03/20 12:56:53;;;;;;;29.52;18.60;;;12.20;43.30;;;;;;5100002;27;20038;-70
2022/03/20 12:59:24;;;;;;;33.00;20.83;;;12.20;42.10;;;;;;5111005;27;20031;-71
2022/03/20 13:01:50;;;;;;;30.27;18.50;;;11.90;43.60;;;;;;5087555;27;20220;-74
2022/03/20 13:04:18;;;;;;;33.33;19.13;;;11.70;44.00;;;;;;5103004;27;20220;-70
2022/03/20 13:06:44;;;;;;;31.00;18.98;;;11.60;44.80;;;;;;5109583;27;20082;-69
2022/03/20 13:09:13;;;;;;;36.00;20.23;;;11.70;44.60;;;;;;5108219;27;20067;-70
2022/03/20 13:11:52;;;;;;;31.25;19.15;;;12.00;45.10;;;;;;5091212;27;20043;-71
2022/03/20 13:14:18;;;;;;;32.75;18.67;;;12.50;44.90;;;;;;5091285;27;20047;-69